createdAt,value
2023-05-09T00:01:31.579Z,-23940.10
2023-05-09T00:08:14.087Z,-23939.16
2023-05-09T00:10:41.253Z,-23937.53
2023-05-09T00:13:08.406Z,-23937.03
2023-05-09T00:15:36.002Z,-23936.50
2023-05-09T00:18:03.172Z,-23935.63
2023-05-09T00:20:30.436Z,-23934.81
2023-05-09T00:22:57.633Z,-23934.24
2023-05-09T00:25:24.789Z,-23934.02
2023-05-09T00:27:51.874Z,-23933.84
2023-05-09T00:30:19.491Z,-23933.90
2023-05-09T00:32:46.696Z,-23933.77
2023-05-09T00:35:14.102Z,-23933.99
2023-05-09T00:37:41.587Z,-23933.99
2023-05-09T00:40:09.405Z,-23933.87
2023-05-09T00:42:36.684Z,-23934.37
2023-05-09T00:45:04.092Z,-23935.06
2023-05-09T00:47:31.191Z,-23935.34
2023-05-09T00:49:58.354Z,-23935.40
2023-05-09T00:52:26.317Z,-23935.65
2023-05-09T00:54:54.179Z,-23935.87
2023-05-09T00:57:22.178Z,-23936.38
2023-05-09T00:59:49.614Z,-23936.97
2023-05-09T01:02:17.482Z,-23937.38
2023-05-09T01:04:45.754Z,-23938.13
2023-05-09T01:07:36.183Z,-23938.44
2023-05-09T01:10:03.270Z,-23938.97
2023-05-09T01:13:05.048Z,-23940.04
2023-05-09T01:15:54.026Z,-23941.42
2023-05-09T01:18:36.545Z,-23942.14
2023-05-09T01:21:08.978Z,-23942.89
2023-05-09T01:23:45.664Z,-23943.48
2023-05-09T01:26:15.776Z,-23944.39
2023-05-09T01:29:14.141Z,-23944.89
2023-05-09T01:31:41.939Z,-23945.46
2023-05-09T01:34:09.446Z,-23945.80
2023-05-09T01:36:37.518Z,-23946.18
2023-05-09T01:39:04.888Z,-23946.71
2023-05-09T01:41:32.252Z,-23947.18
2023-05-09T01:43:59.644Z,-23947.34
2023-05-09T01:46:27.353Z,-23947.18
2023-05-09T01:48:54.551Z,-23946.93
2023-05-09T01:51:21.858Z,-23946.37
2023-05-09T01:53:49.106Z,-23946.27
2023-05-09T01:56:16.231Z,-23946.46
2023-05-09T01:58:43.395Z,-23946.55
2023-05-09T02:01:10.613Z,-23946.62
2023-05-09T02:03:37.868Z,-23946.30
2023-05-09T02:06:05.160Z,-23945.71
2023-05-09T02:08:32.352Z,-23945.24
2023-05-09T02:11:00.823Z,-23944.58
2023-05-09T02:13:27.945Z,-23943.89
2023-05-09T02:15:55.140Z,-23943.71
2023-05-09T02:18:22.193Z,-23943.14
2023-05-09T02:20:49.310Z,-23942.61
2023-05-09T02:23:17.975Z,-23942.23
2023-05-09T02:25:46.587Z,-23941.95
2023-05-09T02:28:14.076Z,-23941.58
2023-05-09T02:30:43.227Z,-23940.88
2023-05-09T02:33:10.807Z,-23940.29
2023-05-09T02:35:37.919Z,-23939.66
2023-05-09T02:38:06.470Z,-23939.16
2023-05-09T02:40:34.919Z,-23939.04
2023-05-09T02:43:03.178Z,-23938.69
2023-05-09T02:45:30.402Z,-23937.88
2023-05-09T02:47:57.510Z,-23937.28
2023-05-09T02:50:24.705Z,-23936.97
2023-05-09T02:52:52.109Z,-23937.13
2023-05-09T02:55:19.155Z,-23937.41
2023-05-09T02:57:46.330Z,-23937.59
2023-05-09T03:00:14.557Z,-23937.85
2023-05-09T03:02:41.688Z,-23938.38
2023-05-09T03:05:14.699Z,-23938.54
2023-05-09T03:07:41.963Z,-23938.75
2023-05-09T03:10:11.596Z,-23938.91
2023-05-09T03:12:39.572Z,-23939.22
2023-05-09T03:15:07.480Z,-23940.26
2023-05-09T03:17:35.698Z,-23941.38
2023-05-09T03:20:05.777Z,-23942.95
2023-05-09T03:22:32.924Z,-23944.68
2023-05-09T03:25:03.132Z,-23945.68
2023-05-09T03:27:30.299Z,-23947.12
2023-05-09T03:29:57.645Z,-23948.15
2023-05-09T03:32:24.842Z,-23948.65
2023-05-09T03:34:51.961Z,-23949.75
2023-05-09T03:37:19.202Z,-23950.97
2023-05-09T03:39:46.667Z,-23951.47
2023-05-09T03:42:13.959Z,-23951.97
2023-05-09T03:44:42.044Z,-23952.41
2023-05-09T03:47:09.723Z,-23952.85
2023-05-09T03:49:38.759Z,-23953.38
2023-05-09T03:52:06.087Z,-23954.95
2023-05-09T03:54:33.633Z,-23955.57
2023-05-09T03:57:01.029Z,-23956.48
2023-05-09T03:59:28.246Z,-23958.83
2023-05-09T04:01:56.322Z,-23962.52
2023-05-09T04:04:25.183Z,-23966.53
2023-05-09T04:06:53.090Z,-23969.59
2023-05-09T04:09:20.352Z,-23972.32
2023-05-09T04:11:47.790Z,-23973.76
2023-05-09T04:14:15.644Z,-23973.76
2023-05-09T04:16:42.852Z,-23973.51
2023-05-09T04:19:10.315Z,-23973.79
2023-05-09T04:21:38.471Z,-23973.79
2023-05-09T04:24:06.485Z,-23974.10
2023-05-09T04:26:39.278Z,-23973.88
2023-05-09T04:29:08.676Z,-23973.16
2023-05-09T04:31:36.544Z,-23972.91
2023-05-09T04:34:03.801Z,-23973.79
2023-05-09T04:36:34.084Z,-23974.76
2023-05-09T04:39:01.217Z,-23976.01
2023-05-09T04:41:28.957Z,-23977.14
2023-05-09T04:43:56.156Z,-23978.05
2023-05-09T04:46:25.866Z,-23979.86
2023-05-09T04:48:53.423Z,-23979.98
2023-05-09T04:51:20.712Z,-23980.61
2023-05-09T04:53:47.722Z,-23982.05
2023-05-09T04:56:15.436Z,-23983.45
2023-05-09T04:58:42.999Z,-23983.30
2023-05-09T05:01:10.713Z,-23984.58
2023-05-09T05:03:38.781Z,-23986.83
2023-05-09T05:06:06.859Z,-23988.18
2023-05-09T05:08:34.193Z,-23989.71
2023-05-09T05:11:01.368Z,-23992.43
2023-05-09T05:13:28.652Z,-23994.68
2023-05-09T05:15:58.991Z,-23996.22
2023-05-09T05:18:26.453Z,-23997.22
2023-05-09T05:20:53.869Z,-23997.94
2023-05-09T05:23:21.233Z,-24000.69
2023-05-09T05:25:49.876Z,-24003.85
2023-05-09T05:28:17.288Z,-24006.66
2023-05-09T05:30:44.674Z,-24009.50
2023-05-09T05:33:11.926Z,-24011.66
2023-05-09T05:35:39.214Z,-24014.10
2023-05-09T05:38:06.666Z,-24015.78
2023-05-09T05:40:34.102Z,-24017.78
2023-05-09T05:43:03.041Z,-24021.25
2023-05-09T05:45:31.240Z,-24025.53
2023-05-09T05:47:59.339Z,-24029.62
2023-05-09T05:50:26.643Z,-24033.68
2023-05-09T05:52:54.029Z,-24037.49
2023-05-09T05:55:21.136Z,-24040.73
2023-05-09T05:57:48.908Z,-24043.70
2023-05-09T06:00:16.620Z,-24047.54
2023-05-09T06:02:48.061Z,-24050.38
2023-05-09T06:05:21.896Z,-24050.22
2023-05-09T06:07:50.407Z,-24049.06
2023-05-09T06:10:17.427Z,-24049.09
2023-05-09T06:12:45.414Z,-24051.47
2023-05-09T06:15:12.964Z,-24054.09
2023-05-09T06:17:42.822Z,-24057.87
2023-05-09T06:20:10.280Z,-24061.11
2023-05-09T06:22:37.548Z,-24061.86
2023-05-09T06:25:06.080Z,-24062.43
2023-05-09T06:27:35.075Z,-24064.10
2023-05-09T06:30:08.381Z,-24066.85
2023-05-09T06:32:41.579Z,-24071.15
2023-05-09T06:35:08.690Z,-24075.67
2023-05-09T06:37:35.751Z,-24079.16
2023-05-09T06:40:03.577Z,-24082.99
2023-05-09T06:42:32.734Z,-24087.11
2023-05-09T06:44:59.858Z,-24090.25
2023-05-09T06:47:27.015Z,-24092.34
2023-05-09T06:49:54.163Z,-24090.10
2023-05-09T06:52:21.729Z,-24089.16
2023-05-09T06:54:48.753Z,-24090.97
2023-05-09T06:57:15.684Z,-24092.25
2023-05-09T06:59:44.897Z,-24091.34
2023-05-09T07:02:11.993Z,-24093.31
2023-05-09T07:04:39.051Z,-24095.11
2023-05-09T07:07:06.136Z,-24095.52
2023-05-09T07:09:33.300Z,-24096.08
2023-05-09T07:12:00.669Z,-24097.85
2023-05-09T07:14:27.611Z,-24100.84
2023-05-09T07:17:02.219Z,-24103.93
2023-05-09T07:19:37.281Z,-24105.11
2023-05-09T07:22:04.312Z,-24105.95
2023-05-09T07:24:31.341Z,-24105.30
2023-05-09T07:26:58.392Z,-24103.68
2023-05-09T07:29:26.168Z,-24103.34
2023-05-09T07:31:53.281Z,-24103.03
2023-05-09T07:34:20.996Z,-24101.78
2023-05-09T07:36:48.321Z,-24099.79
2023-05-09T07:39:16.935Z,-24097.57
2023-05-09T07:41:44.263Z,-24095.39
2023-05-09T07:44:11.305Z,-24094.39
2023-05-09T07:46:40.532Z,-24095.46
2023-05-09T07:49:07.927Z,-24095.80
2023-05-09T07:51:34.845Z,-24095.14
2023-05-09T07:54:01.752Z,-24094.71
2023-05-09T07:56:28.842Z,-24096.98
2023-05-09T07:58:56.104Z,-24100.63
2023-05-09T08:01:23.059Z,-24103.31
2023-05-09T08:03:50.297Z,-24107.63
2023-05-09T08:06:17.330Z,-24109.82
2023-05-09T08:08:44.357Z,-24110.28
2023-05-09T08:11:11.477Z,-24112.06
2023-05-09T08:13:38.578Z,-24113.33
2023-05-09T08:16:06.038Z,-24112.43
2023-05-09T08:18:33.211Z,-24111.71
2023-05-09T08:21:01.297Z,-24110.97
2023-05-09T08:23:30.244Z,-24109.22
2023-05-09T08:25:59.247Z,-24107.39
2023-05-09T08:28:29.355Z,-24104.24
2023-05-09T08:30:57.566Z,-24102.81
2023-05-09T08:33:26.102Z,-24102.87
2023-05-09T08:35:53.536Z,-24103.93
2023-05-09T08:38:20.995Z,-24104.46
2023-05-09T08:40:48.197Z,-24104.37
2023-05-09T08:43:16.580Z,-24104.43
2023-05-09T08:45:49.926Z,-24105.14
2023-05-09T08:48:17.159Z,-24106.30
2023-05-09T08:50:44.505Z,-24108.35
2023-05-09T08:53:12.013Z,-24111.50
2023-05-09T08:55:39.140Z,-24113.83
2023-05-09T08:58:06.427Z,-24114.80
2023-05-09T09:00:33.639Z,-24115.64
2023-05-09T09:03:02.464Z,-24117.50
2023-05-09T09:08:01.528Z,-24120.24
2023-05-09T09:10:29.755Z,-24119.78
2023-05-09T09:12:57.658Z,-24118.75
2023-05-09T09:15:26.942Z,-24118.71
2023-05-09T09:17:56.633Z,-24119.53
2023-05-09T09:20:23.771Z,-24118.78
2023-05-09T09:22:50.729Z,-24117.94
2023-05-09T09:25:18.321Z,-24118.46
2023-05-09T09:27:46.129Z,-24118.06
2023-05-09T09:30:13.901Z,-24117.04
2023-05-09T09:32:41.218Z,-24117.54
2023-05-09T09:35:09.966Z,-24119.56
2023-05-09T09:37:42.880Z,-24122.36
2023-05-09T09:40:10.936Z,-24123.23
2023-05-09T09:42:47.978Z,-24122.89
2023-05-09T09:45:19.293Z,-24122.29
2023-05-09T09:47:47.505Z,-24123.63
2023-05-09T09:50:18.494Z,-24125.31
2023-05-09T09:52:56.155Z,-24127.27
2023-05-09T09:55:24.259Z,-24129.39
2023-05-09T09:57:51.682Z,-24131.78
2023-05-09T10:00:20.416Z,-24133.43
2023-05-09T10:02:54.904Z,-24132.93
2023-05-09T10:05:23.458Z,-24130.88
2023-05-09T10:08:00.576Z,-24128.89
2023-05-09T10:10:28.684Z,-24126.90
2023-05-09T10:12:57.957Z,-24125.37
2023-05-09T10:15:25.259Z,-24124.81
2023-05-09T10:17:54.953Z,-24124.69
2023-05-09T10:20:22.750Z,-24124.97
2023-05-09T10:22:49.814Z,-24126.15
2023-05-09T10:25:21.746Z,-24126.84
2023-05-09T10:27:49.278Z,-24129.76
2023-05-09T10:30:20.204Z,-24133.15
2023-05-09T10:32:53.950Z,-24135.64
2023-05-09T10:35:25.684Z,-24138.93
2023-05-09T10:37:53.146Z,-24142.32
2023-05-09T10:40:20.169Z,-24143.70
2023-05-09T10:42:47.216Z,-24144.69
2023-05-09T10:45:14.560Z,-24145.96
2023-05-09T10:47:42.337Z,-24146.56
2023-05-09T10:50:10.451Z,-24146.68
2023-05-09T10:53:08.729Z,-24143.69
2023-05-09T10:55:37.900Z,-24140.36
2023-05-09T10:58:25.123Z,-24139.43
2023-05-09T11:00:53.502Z,-24139.43
2023-05-09T11:03:21.972Z,-24139.87
2023-05-09T11:05:51.555Z,-24141.33
2023-05-09T11:08:28.265Z,-24142.67
2023-05-09T11:10:56.468Z,-24143.41
2023-05-09T11:13:30.838Z,-24145.22
2023-05-09T11:16:00.993Z,-24146.96
2023-05-09T11:18:32.528Z,-24147.37
2023-05-09T11:20:59.935Z,-24148.98
2023-05-09T11:23:27.227Z,-24147.77
2023-05-09T11:25:54.454Z,-24145.81
2023-05-09T11:28:32.648Z,-24145.41
2023-05-09T11:31:16.769Z,-24145.84
2023-05-09T11:33:45.277Z,-24146.09
2023-05-09T11:36:18.733Z,-24144.50
2023-05-09T11:38:49.048Z,-24143.04
2023-05-09T11:41:16.249Z,-24143.13
2023-05-09T11:43:44.542Z,-24142.82
2023-05-09T11:46:11.756Z,-24142.45
2023-05-09T11:48:39.728Z,-24142.07
2023-05-09T11:51:07.646Z,-24141.33
2023-05-09T11:53:34.749Z,-24138.56
2023-05-09T11:56:05.096Z,-24137.57
2023-05-09T11:58:32.221Z,-24138.34
2023-05-09T12:00:59.193Z,-24138.90
2023-05-09T12:03:26.638Z,-24138.88
2023-05-09T12:05:54.711Z,-24139.09
2023-05-09T12:08:22.948Z,-24139.21
2023-05-09T12:10:50.286Z,-24140.80
2023-05-09T12:13:18.178Z,-24141.08
2023-05-09T12:15:45.347Z,-24140.86
2023-05-09T12:18:12.468Z,-24141.05
2023-05-09T12:20:50.320Z,-24142.32
2023-05-09T12:23:17.472Z,-24142.82
2023-05-09T12:26:02.832Z,-24142.51
2023-05-09T12:28:30.098Z,-24141.27
2023-05-09T12:30:57.208Z,-24140.52
2023-05-09T12:33:24.389Z,-24140.77
2023-05-09T12:36:11.364Z,-24141.02
2023-05-09T12:38:38.714Z,-24142.11
2023-05-09T12:41:06.654Z,-24143.26
2023-05-09T12:43:34.761Z,-24144.60
2023-05-09T12:46:02.548Z,-24145.16
2023-05-09T12:48:30.393Z,-24146.00
2023-05-09T12:50:57.668Z,-24147.05
2023-05-09T12:53:25.847Z,-24149.73
2023-05-09T12:56:00.139Z,-24152.55
2023-05-09T12:58:32.941Z,-24153.39
2023-05-09T13:01:05.033Z,-24153.68
2023-05-09T13:03:37.939Z,-24153.36
2023-05-09T13:06:06.685Z,-24151.84
2023-05-09T13:08:33.660Z,-24148.95
2023-05-09T13:11:11.820Z,-24148.61
2023-05-09T13:13:42.717Z,-24148.98
2023-05-09T13:16:11.145Z,-24148.08
2023-05-09T13:18:39.046Z,-24146.46
2023-05-09T13:21:06.173Z,-24145.66
2023-05-09T13:23:36.307Z,-24145.38
2023-05-09T13:26:03.715Z,-24145.44
2023-05-09T13:28:30.832Z,-24144.26
2023-05-09T13:30:59.311Z,-24142.57
2023-05-09T13:33:26.901Z,-24142.14
2023-05-09T13:35:54.084Z,-24141.33
2023-05-09T13:38:21.127Z,-24138.93
2023-05-09T13:40:48.088Z,-24137.04
2023-05-09T13:43:15.232Z,-24136.11
2023-05-09T13:45:42.450Z,-24135.73
2023-05-09T13:48:09.584Z,-24135.86
2023-05-09T13:50:36.920Z,-24136.32
2023-05-09T13:53:03.897Z,-24136.42
2023-05-09T13:55:31.043Z,-24136.72
2023-05-09T13:57:58.150Z,-24136.07
2023-05-09T14:00:26.843Z,-24135.26
2023-05-09T14:02:54.090Z,-24134.43
2023-05-09T14:05:21.244Z,-24133.09
2023-05-09T14:07:48.367Z,-24131.97
2023-05-09T14:10:18.093Z,-24131.13
2023-05-09T14:12:46.849Z,-24130.66
2023-05-09T14:15:14.273Z,-24130.41
2023-05-09T14:17:41.759Z,-24130.44
2023-05-09T14:20:09.214Z,-24130.32
2023-05-09T14:22:36.500Z,-24128.64
2023-05-09T14:25:03.595Z,-24127.02
2023-05-09T14:27:33.006Z,-24125.84
2023-05-09T14:30:00.446Z,-24124.88
2023-05-09T14:32:27.412Z,-24123.69
2023-05-09T14:34:54.416Z,-24123.41
2023-05-09T14:37:21.958Z,-24122.86
2023-05-09T14:39:49.891Z,-24123.01
2023-05-09T14:42:16.927Z,-24122.86
2023-05-09T14:44:45.092Z,-24122.33
2023-05-09T14:47:12.166Z,-24121.58
2023-05-09T14:49:40.234Z,-24120.14
2023-05-09T14:52:07.295Z,-24119.03
2023-05-09T14:54:34.968Z,-24118.53
2023-05-09T14:57:04.689Z,-24118.09
2023-05-09T14:59:31.777Z,-24116.94
2023-05-09T15:01:59.016Z,-24116.01
2023-05-09T15:04:30.796Z,-24115.42
2023-05-09T15:06:59.177Z,-24114.42
2023-05-09T15:09:26.900Z,-24113.02
2023-05-09T15:11:55.082Z,-24111.81
2023-05-09T15:14:22.292Z,-24110.84
2023-05-09T15:16:51.753Z,-24110.62
2023-05-09T15:19:19.319Z,-24110.19
2023-05-09T15:21:46.919Z,-24109.85
2023-05-09T15:24:14.252Z,-24109.69
2023-05-09T15:26:41.553Z,-24110.00
2023-05-09T15:29:08.574Z,-24109.91
2023-05-09T15:31:36.786Z,-24109.66
2023-05-09T15:34:03.781Z,-24109.10
2023-05-09T15:36:31.173Z,-24109.07
2023-05-09T15:38:58.208Z,-24109.13
2023-05-09T15:41:25.279Z,-24109.19
2023-05-09T15:43:52.863Z,-24109.07
2023-05-09T15:46:20.041Z,-24108.60
2023-05-09T15:48:47.422Z,-24108.45
2023-05-09T15:51:15.725Z,-24108.82
2023-05-09T15:53:42.987Z,-24108.97
2023-05-09T15:56:10.004Z,-24108.66
2023-05-09T15:58:37.086Z,-24108.57
2023-05-09T16:01:06.435Z,-24107.88
2023-05-09T16:03:34.033Z,-24107.42
2023-05-09T16:06:01.226Z,-24107.04
2023-05-09T16:08:28.307Z,-24106.67
2023-05-09T16:10:55.408Z,-24106.83
2023-05-09T16:13:22.621Z,-24106.61
2023-05-09T16:15:51.174Z,-24105.95
2023-05-09T16:18:18.828Z,-24104.96
2023-05-09T16:20:45.890Z,-24104.15
2023-05-09T16:23:13.301Z,-24103.90
2023-05-09T16:25:40.368Z,-24103.03
2023-05-09T16:28:08.405Z,-24102.38
2023-05-09T16:30:35.559Z,-24102.00
2023-05-09T16:33:02.639Z,-24101.04
2023-05-09T16:35:29.759Z,-24099.38
2023-05-09T16:37:56.983Z,-24097.73
2023-05-09T16:40:24.194Z,-24096.73
2023-05-09T16:42:51.210Z,-24096.11
2023-05-09T16:45:18.356Z,-24095.02
2023-05-09T16:47:45.412Z,-24093.31
2023-05-09T16:50:12.618Z,-24091.66
2023-05-09T16:52:42.091Z,-24090.16
2023-05-09T16:55:09.148Z,-24089.04
2023-05-09T16:57:36.360Z,-24088.35
2023-05-09T17:00:03.853Z,-24087.67
2023-05-09T17:02:31.015Z,-24086.05
2023-05-09T17:04:58.220Z,-24084.33
2023-05-09T17:07:25.145Z,-24082.71
2023-05-09T17:09:52.405Z,-24080.88
2023-05-09T17:12:19.397Z,-24079.29
2023-05-09T17:14:47.365Z,-24077.88
2023-05-09T17:17:14.884Z,-24076.11
2023-05-09T17:19:42.918Z,-24074.27
2023-05-09T17:22:10.157Z,-24072.06
2023-05-09T17:24:37.253Z,-24069.78
2023-05-09T17:27:04.873Z,-24067.72
2023-05-09T17:29:31.944Z,-24065.85
2023-05-09T17:32:02.002Z,-24064.20
2023-05-09T17:34:29.170Z,-24062.39
2023-05-09T17:36:56.573Z,-24060.73
2023-05-09T17:39:23.924Z,-24059.37
2023-05-09T17:41:51.148Z,-24057.74
2023-05-09T17:44:18.202Z,-24056.46
2023-05-09T17:46:45.288Z,-24055.28
2023-05-09T17:49:14.215Z,-24054.09
2023-05-09T17:51:41.420Z,-24052.66
2023-05-09T17:54:08.778Z,-24051.09
2023-05-09T17:56:35.824Z,-24049.69
2023-05-09T17:59:02.910Z,-24048.47
2023-05-09T18:01:30.153Z,-24047.29
2023-05-09T18:03:57.971Z,-24046.00
2023-05-09T18:06:26.371Z,-24044.76
2023-05-09T18:08:53.413Z,-24043.70
2023-05-09T18:11:20.657Z,-24042.45
2023-05-09T18:13:47.622Z,-24041.14
2023-05-09T18:16:14.693Z,-24039.80
2023-05-09T18:18:41.832Z,-24038.39
2023-05-09T18:21:09.677Z,-24036.83
2023-05-09T18:23:36.964Z,-24035.24
2023-05-09T18:26:04.539Z,-24033.99
2023-05-09T18:28:31.969Z,-24032.83
2023-05-09T18:30:59.181Z,-24031.37
2023-05-09T18:33:27.959Z,-24029.24
2023-05-09T18:35:55.067Z,-24027.43
2023-05-09T18:38:22.788Z,-24025.40
2023-05-09T18:40:51.824Z,-24023.46
2023-05-09T18:43:20.827Z,-24021.75
2023-05-09T18:45:49.255Z,-24020.00
2023-05-09T18:48:17.216Z,-24018.28
2023-05-09T18:50:44.821Z,-24016.72
2023-05-09T18:53:11.850Z,-24015.69
2023-05-09T18:55:39.306Z,-24014.81
2023-05-09T18:58:06.808Z,-24013.79
2023-05-09T19:00:35.008Z,-24012.91
2023-05-09T19:03:03.392Z,-24011.31
2023-05-09T19:05:30.573Z,-24009.34
2023-05-09T19:07:57.793Z,-24007.57
2023-05-09T19:10:24.988Z,-24005.91
2023-05-09T19:12:52.218Z,-24004.63
2023-05-09T19:15:20.044Z,-24003.38
2023-05-09T19:17:47.285Z,-24002.07
2023-05-09T19:20:14.588Z,-24001.03
2023-05-09T19:22:45.770Z,-24000.32
2023-05-09T19:25:12.988Z,-23999.56
2023-05-09T19:27:40.040Z,-23998.75
2023-05-09T19:30:07.889Z,-23998.03
2023-05-09T19:32:35.103Z,-23997.38
2023-05-09T19:35:02.386Z,-23996.75
2023-05-09T19:37:30.206Z,-23996.34
2023-05-09T19:39:57.463Z,-23996.09
2023-05-09T19:42:24.582Z,-23996.09
2023-05-09T19:44:52.598Z,-23996.06
2023-05-09T19:47:19.802Z,-23995.84
2023-05-09T19:49:46.821Z,-23995.35
2023-05-09T19:52:14.137Z,-23995.06
2023-05-09T19:54:41.435Z,-23994.78
2023-05-09T19:57:08.452Z,-23994.37
2023-05-09T19:59:35.599Z,-23993.96
2023-05-09T20:02:02.896Z,-23993.53
2023-05-09T20:04:36.289Z,-23992.90
2023-05-09T20:07:06.081Z,-23992.21
2023-05-09T20:09:33.253Z,-23991.83
2023-05-09T20:12:02.093Z,-23991.09
2023-05-09T20:14:29.219Z,-23990.18
2023-05-09T20:16:56.918Z,-23989.15
2023-05-09T20:19:23.888Z,-23988.49
2023-05-09T20:21:51.091Z,-23988.18
2023-05-09T20:24:18.157Z,-23987.49
2023-05-09T20:26:45.074Z,-23986.58
2023-05-09T20:29:12.052Z,-23985.93
2023-05-09T20:31:39.403Z,-23985.46
2023-05-09T20:34:10.608Z,-23984.71
2023-05-09T20:36:37.602Z,-23983.80
2023-05-09T20:39:04.772Z,-23983.30
2023-05-09T20:41:31.786Z,-23982.49
2023-05-09T20:44:03.742Z,-23981.92
2023-05-09T20:46:31.127Z,-23981.17
2023-05-09T20:48:58.063Z,-23980.45
2023-05-09T20:51:25.045Z,-23979.33
2023-05-09T20:53:52.386Z,-23978.14
2023-05-09T20:56:19.702Z,-23977.45
2023-05-09T20:58:46.662Z,-23977.20
2023-05-09T21:01:13.687Z,-23977.01
2023-05-09T21:03:40.685Z,-23976.42
2023-05-09T21:06:08.109Z,-23976.29
2023-05-09T21:08:35.205Z,-23976.04
2023-05-09T21:11:02.130Z,-23975.45
2023-05-09T21:13:29.334Z,-23975.29
2023-05-09T21:15:56.260Z,-23975.04
2023-05-09T21:18:23.309Z,-23974.66
2023-05-09T21:20:50.733Z,-23974.26
2023-05-09T21:23:18.796Z,-23974.23
2023-05-09T21:25:45.865Z,-23974.04
2023-05-09T21:28:15.620Z,-23974.13
2023-05-09T21:30:42.656Z,-23973.82
2023-05-09T21:33:09.711Z,-23973.73
2023-05-09T21:35:36.733Z,-23973.73
2023-05-09T21:38:03.766Z,-23973.45
2023-05-09T21:40:30.836Z,-23973.45
2023-05-09T21:42:57.809Z,-23973.04
2023-05-09T21:45:24.879Z,-23972.66
2023-05-09T21:47:51.971Z,-23972.16
2023-05-09T21:50:19.074Z,-23971.63
2023-05-09T21:52:45.946Z,-23971.19
2023-05-09T21:55:12.944Z,-23970.41
2023-05-09T21:57:39.939Z,-23969.79
2023-05-09T22:00:07.727Z,-23968.97
2023-05-09T22:02:42.712Z,-23968.13
2023-05-09T22:05:10.294Z,-23967.31
2023-05-09T22:07:37.398Z,-23966.81
2023-05-09T22:10:04.870Z,-23965.94
2023-05-09T22:12:31.952Z,-23964.68
2023-05-09T22:14:59.201Z,-23963.05
2023-05-09T22:17:26.334Z,-23961.40
2023-05-09T22:19:53.262Z,-23959.83
2023-05-09T22:22:20.267Z,-23958.52
2023-05-09T22:24:47.179Z,-23957.04
2023-05-09T22:27:14.068Z,-23955.64
2023-05-09T22:29:41.030Z,-23954.41
2023-05-09T22:32:08.501Z,-23952.94
2023-05-09T22:34:35.600Z,-23951.69
2023-05-09T22:37:02.523Z,-23950.06
2023-05-09T22:39:30.038Z,-23948.56
2023-05-09T22:41:56.917Z,-23947.49
2023-05-09T22:44:23.960Z,-23946.58
2023-05-09T22:46:50.941Z,-23945.99
2023-05-09T22:49:17.985Z,-23945.49
2023-05-09T22:51:44.872Z,-23944.46
2023-05-09T22:54:12.042Z,-23943.52
2023-05-09T22:56:38.979Z,-23942.39
2023-05-09T22:59:05.906Z,-23941.39
2023-05-09T23:01:33.431Z,-23940.88
2023-05-09T23:04:00.522Z,-23940.60
2023-05-09T23:06:27.483Z,-23940.91
2023-05-09T23:08:54.408Z,-23941.51
2023-05-09T23:11:23.815Z,-23942.20
2023-05-09T23:13:50.778Z,-23942.82
2023-05-09T23:16:17.851Z,-23943.08
2023-05-09T23:18:44.822Z,-23943.08
2023-05-09T23:21:11.881Z,-23943.11
2023-05-09T23:23:39.682Z,-23942.64
2023-05-09T23:26:06.754Z,-23942.67
2023-05-09T23:28:33.824Z,-23943.39
2023-05-09T23:31:01.029Z,-23943.52
2023-05-09T23:33:28.168Z,-23943.55
2023-05-09T23:35:55.261Z,-23943.95
2023-05-09T23:38:22.685Z,-23944.20
2023-05-09T23:40:49.718Z,-23944.49
2023-05-09T23:43:18.186Z,-23944.93
2023-05-09T23:45:45.190Z,-23945.27
2023-05-09T23:48:12.189Z,-23945.77
2023-05-09T23:50:39.190Z,-23946.02
2023-05-09T23:53:06.684Z,-23946.58
2023-05-09T23:55:33.690Z,-23946.84
2023-05-09T23:58:02.543Z,-23947.21
